Time;durP1;ratioP1;P1;durP2;ratioP2;P2;SDS_P1;SDS_P2;PMS_P1;PMS_P2;Temp;Humidity;BMP_temperature;BMP_pressure;BME280_temperature;BME280_humidity;BME280_pressure;Samples;Min_cycle;Max_cycle;Signal;HPM_P1;HPM_P2
2022/01/28 00:00:20;;;;;;;8.60;2.40;;;;;;;19.25;38.22;102562.00;5075875;28;21678;-65
2022/01/28 00:05:17;;;;;;;7.45;2.20;;;;;;;19.19;37.99;102560.69;5076722;28;20035;-65
2022/01/28 00:07:42;;;;;;;7.43;2.28;;;;;;;19.15;38.43;102561.09;5078885;28;20135;-65
2022/01/28 00:10:08;;;;;;;8.48;2.30;;;;;;;19.11;38.32;102568.47;5080775;28;20048;-65
2022/01/28 00:12:41;;;;;;;5.35;2.17;;;;;;;19.12;38.38;102585.13;5078023;28;20247;-65
2022/01/28 00:15:18;;;;;;;6.50;2.10;;;;;;;19.07;38.46;102579.44;5076228;28;20449;-65
2022/01/28 00:39:08;;;;;;;7.03;2.15;;;;;;;18.86;38.73;102611.97;5081824;28;20039;-67
2022/01/28 00:41:34;;;;;;;6.43;2.05;;;;;;;18.85;38.69;102604.16;5081582;28;20054;-67
2022/01/28 00:43:59;;;;;;;7.95;2.55;;;;;;;18.79;38.51;102612.63;5081895;28;20504;-67
2022/01/28 00:46:25;;;;;;;7.18;2.63;;;;;;;18.77;38.67;102604.81;5080249;28;20040;-67
2022/01/28 00:48:50;;;;;;;7.20;2.28;;;;;;;18.70;38.63;102615.06;5078388;28;20059;-67
2022/01/28 00:51:16;;;;;;;9.80;2.47;;;;;;;18.73;38.83;102613.13;5079363;28;20044;-67
2022/01/28 00:53:41;;;;;;;7.75;2.03;;;;;;;18.72;38.73;102620.22;5063793;28;20404;-66
2022/01/28 00:56:07;;;;;;;11.25;2.42;;;;;;;18.62;39.05;102609.56;5080845;28;20059;-67
2022/01/28 00:58:33;;;;;;;7.28;2.20;;;;;;;18.63;38.79;102624.44;5060632;28;20038;-67
2022/01/28 01:00:58;;;;;;;6.93;2.20;;;;;;;18.57;38.93;102618.84;5084138;28;20047;-67
2022/01/28 01:03:24;;;;;;;8.52;2.55;;;;;;;18.47;38.97;102599.44;5080547;28;20122;-66
2022/01/28 01:05:49;;;;;;;10.18;2.70;;;;;;;18.52;39.08;102621.84;5081397;28;20098;-67
2022/01/28 01:08:15;;;;;;;7.93;2.47;;;;;;;18.56;39.05;102633.00;5079226;28;20036;-67
2022/01/28 01:10:40;;;;;;;8.38;2.20;;;;;;;18.53;38.90;102631.44;5081918;28;20140;-67
2022/01/28 01:13:06;;;;;;;7.78;2.20;;;;;;;18.51;38.84;102661.56;5076515;28;20040;-67
2022/01/28 01:15:37;;;;;;;7.60;2.78;;;;;;;18.39;38.98;102650.22;5081210;28;20488;-67
2022/01/28 01:23:24;;;;;;;7.93;2.83;;;;;;;18.47;38.79;102682.06;5078648;28;20271;-67
2022/01/28 01:28:27;;;;;;;12.55;2.63;;;;;;;18.43;39.02;102688.56;5075579;28;20182;-67
2022/01/28 01:30:52;;;;;;;9.23;2.00;;;;;;;18.37;38.98;102682.00;5079735;28;20032;-67
2022/01/28 01:33:20;;;;;;;9.43;2.58;;;;;;;18.32;39.25;102693.88;5082552;28;20405;-67
2022/01/28 01:35:46;;;;;;;7.80;2.10;;;;;;;18.39;38.97;102700.31;5064386;28;20478;-66
2022/01/28 01:38:12;;;;;;;8.95;2.33;;;;;;;18.31;39.04;102708.00;5080272;28;20051;-67
2022/01/28 01:41:02;;;;;;;4.35;1.80;;;;;;;18.31;39.13;102714.16;5079023;28;20036;-67
2022/01/28 01:53:48;;;;;;;9.23;2.15;;;;;;;18.14;39.13;102727.84;5081260;28;20064;-67
2022/01/28 01:56:13;;;;;;;6.28;2.05;;;;;;;18.19;38.88;102741.50;5075499;28;20036;-67
2022/01/28 01:58:40;;;;;;;7.90;2.20;;;;;;;18.22;38.86;102748.31;5081576;28;20035;-67
2022/01/28 02:01:07;;;;;;;9.38;2.33;;;;;;;18.20;39.04;102750.25;5075653;28;20114;-67
2022/01/28 02:03:32;;;;;;;8.82;2.25;;;;;;;18.21;39.05;102754.56;5081592;28;20106;-67
2022/01/28 02:06:00;;;;;;;11.70;2.80;;;;;;;18.19;39.09;102754.69;5077591;28;20040;-67
2022/01/28 02:08:32;;;;;;;8.55;2.78;;;;;;;18.11;39.02;102742.09;5077402;28;20073;-67
2022/01/28 02:10:59;;;;;;;5.13;2.20;;;;;;;18.14;38.98;102740.19;5078593;28;20055;-67
2022/01/28 02:13:27;;;;;;;7.18;2.17;;;;;;;18.11;39.05;102750.00;5079385;28;20139;-67
2022/01/28 02:15:53;;;;;;;7.88;2.28;;;;;;;18.13;38.91;102755.16;5078427;28;20477;-67
2022/01/28 02:18:20;;;;;;;7.88;2.17;;;;;;;18.07;38.98;102767.03;5077740;28;20109;-67
2022/01/28 02:20:49;;;;;;;11.30;2.92;;;;;;;18.03;39.38;102773.50;5080844;28;20085;-67
2022/01/28 02:23:15;;;;;;;8.23;2.20;;;;;;;18.06;39.26;102797.00;5078015;28;20127;-67
2022/01/28 02:25:42;;;;;;;10.50;2.30;;;;;;;18.02;39.22;102811.38;5077229;28;20036;-67
2022/01/28 02:28:10;;;;;;;8.15;1.98;;;;;;;17.95;39.19;102806.69;5077351;28;20044;-66
2022/01/28 02:30:36;;;;;;;9.48;2.42;;;;;;;18.01;39.07;102807.06;5087257;28;20044;-67
2022/01/28 02:33:11;;;;;;;9.13;2.42;;;;;;;18.00;39.12;102805.38;5078023;28;20465;-67
2022/01/28 02:35:38;;;;;;;6.47;2.58;;;;;;;18.03;38.90;102823.59;5081093;28;20063;-67
2022/01/28 02:38:04;;;;;;;7.47;1.90;;;;;;;18.01;39.06;102822.03;5080787;28;20499;-67
2022/01/28 02:40:31;;;;;;;6.43;2.10;;;;;;;17.95;39.36;102815.44;5086347;28;20119;-67
2022/01/28 02:45:28;;;;;;;6.72;2.47;;;;;;;17.95;39.26;102825.13;5079383;28;20112;-67
2022/01/28 02:47:59;;;;;;;10.48;2.38;;;;;;;17.92;39.25;102834.13;5060278;28;20069;-67
2022/01/28 02:50:27;;;;;;;9.50;2.35;;;;;;;17.87;39.40;102840.72;5079032;28;20483;-67
2022/01/28 02:53:03;;;;;;;9.10;2.13;;;;;;;17.83;39.51;102834.84;5077843;28;20070;-67
2022/01/28 02:55:34;;;;;;;11.30;2.45;;;;;;;17.90;39.31;102840.47;5077950;28;20067;-67
2022/01/28 02:58:15;;;;;;;8.70;2.90;;;;;;;17.86;39.37;102828.50;5073993;28;20045;-67
2022/01/28 03:00:41;;;;;;;9.02;2.08;;;;;;;17.87;39.52;102833.66;5082132;28;20047;-67
2022/01/28 03:03:07;;;;;;;11.15;3.47;;;;;;;17.85;39.52;102843.47;5077862;28;20043;-67
2022/01/28 03:05:34;;;;;;;7.55;2.55;;;;;;;17.83;39.37;102842.75;5093046;28;20086;-67
2022/01/28 03:08:03;;;;;;;6.22;2.67;;;;;;;17.84;39.45;102838.31;5079500;28;20545;-67
2022/01/28 03:15:51;;;;;;;9.27;2.58;;;;;;;17.83;39.47;102850.66;5044692;28;20533;-67
2022/01/28 03:18:21;;;;;;;7.78;2.63;;;;;;;17.77;39.56;102854.63;5077721;28;20039;-67
2022/01/28 03:23:18;;;;;;;11.75;2.85;;;;;;;17.79;39.43;102868.50;5078879;28;20489;-67
2022/01/28 03:25:45;;;;;;;10.45;2.67;;;;;;;17.79;39.31;102876.41;5060386;28;20048;-67
2022/01/28 03:28:12;;;;;;;13.10;2.92;;;;;;;17.76;39.30;102883.69;5078796;28;20073;-67
2022/01/28 03:30:37;;;;;;;12.35;2.65;;;;;;;17.79;39.35;102881.69;5074719;28;20481;-66
2022/01/28 03:33:03;;;;;;;7.78;2.50;;;;;;;17.77;39.42;102882.72;5064775;28;20039;-67
2022/01/28 03:35:30;;;;;;;11.85;2.55;;;;;;;17.73;39.33;102882.13;5075850;28;20035;-67
2022/01/28 03:38:00;;;;;;;9.18;2.35;;;;;;;17.77;39.27;102888.88;5082213;28;20048;-67
2022/01/28 03:40:28;;;;;;;7.75;2.60;;;;;;;17.74;39.37;102890.88;5075878;28;20044;-67
2022/01/28 03:42:54;;;;;;;8.55;2.30;;;;;;;17.72;39.52;102884.88;5080616;28;20043;-67
2022/01/28 03:45:19;;;;;;;11.63;2.95;;;;;;;17.69;39.25;102885.97;5075887;28;20044;-67
2022/01/28 03:47:45;;;;;;;9.55;2.78;;;;;;;17.72;39.09;102888.34;5081082;28;20421;-67
2022/01/28 03:50:10;;;;;;;8.10;2.53;;;;;;;17.68;39.36;102899.25;5061737;28;20504;-67
2022/01/28 03:52:36;;;;;;;11.35;3.00;;;;;;;17.67;39.51;102906.28;5079317;28;20067;-67
2022/01/28 03:55:02;;;;;;;5.30;2.05;;;;;;;17.68;39.19;102908.00;5080616;28;20035;-67
2022/01/28 03:57:28;;;;;;;9.45;2.72;;;;;;;17.65;39.35;102910.84;5080423;28;20032;-67
2022/01/28 03:59:53;;;;;;;11.68;3.33;;;;;;;17.67;39.11;102913.34;5079664;28;20086;-67
2022/01/28 04:02:23;;;;;;;7.32;2.60;;;;;;;17.60;39.13;102893.69;5080316;28;20047;-67
2022/01/28 04:05:42;;;;;;;10.60;2.70;;;;;;;17.72;38.89;102912.06;5084094;28;20405;-67
2022/01/28 04:13:06;;;;;;;8.13;2.65;;;;;;;17.68;38.97;102908.00;5079989;28;20476;-67
2022/01/28 04:16:04;;;;;;;14.57;3.30;;;;;;;17.67;39.02;102915.97;5081941;28;20055;-67
2022/01/28 04:18:30;;;;;;;11.55;2.60;;;;;;;17.67;39.02;102922.09;5071358;28;20156;-67
2022/01/28 04:20:56;;;;;;;12.27;2.85;;;;;;;17.70;38.75;102921.88;5081479;28;20045;-67
2022/01/28 04:23:21;;;;;;;8.77;2.40;;;;;;;17.69;39.10;102929.91;5080923;28;20314;-67
2022/01/28 04:25:47;;;;;;;10.02;2.72;;;;;;;17.67;39.11;102937.91;5080275;28;20044;-67
2022/01/28 04:28:12;;;;;;;7.43;2.83;;;;;;;17.66;39.11;102944.13;5083073;28;20032;-67
2022/01/28 04:30:38;;;;;;;11.32;2.65;;;;;;;17.63;39.21;102954.06;5080377;28;20086;-67
2022/01/28 04:33:03;;;;;;;10.23;3.03;;;;;;;17.68;39.04;102951.94;5080679;28;20412;-67
2022/01/28 04:35:29;;;;;;;11.50;2.72;;;;;;;17.66;38.93;102953.84;5081972;28;20051;-67
2022/01/28 04:38:20;;;;;;;5.53;2.35;;;;;;;17.68;38.84;102949.31;5079916;28;20043;-67
2022/01/28 04:41:00;;;;;;;11.10;2.78;;;;;;;17.66;38.89;102964.38;5082856;28;20047;-67
2022/01/28 04:43:33;;;;;;;6.20;2.63;;;;;;;17.62;38.90;102962.91;5063531;28;21412;-67
2022/01/28 04:46:08;;;;;;;9.70;2.90;;;;;;;17.61;39.05;102962.09;5067855;28;20151;-67
2022/01/28 04:56:49;;;;;;;10.23;2.60;;;;;;;17.60;39.15;102970.94;5080660;28;20062;-67
2022/01/28 05:07:52;;;;;;;7.68;2.28;;;;;;;17.63;38.96;102981.25;5081513;28;20397;-67
2022/01/28 05:15:28;;;;;;;9.25;2.72;;;;;;;17.64;39.18;103011.06;5060160;28;20040;-67
2022/01/28 05:28:50;;;;;;;6.97;2.80;;;;;;;17.66;38.86;103009.16;5067933;28;20109;-67
2022/01/28 05:31:17;;;;;;;9.30;2.47;;;;;;;17.68;39.02;103020.47;5081324;28;20043;-67
2022/01/28 05:33:43;;;;;;;7.57;2.60;;;;;;;17.65;39.19;103016.22;5088910;28;20126;-67
2022/01/28 05:36:08;;;;;;;8.55;3.00;;;;;;;17.64;39.13;103022.44;5081575;28;20024;-67
2022/01/28 05:38:34;;;;;;;9.52;2.20;;;;;;;17.57;39.32;103023.81;5083689;28;20063;-67
2022/01/28 05:40:59;;;;;;;11.75;3.40;;;;;;;17.65;39.18;103037.31;5078363;28;21087;-67
2022/01/28 05:43:25;;;;;;;9.27;2.50;;;;;;;17.66;39.12;103040.78;5081026;28;20036;-67
2022/01/28 05:45:50;;;;;;;6.05;2.35;;;;;;;17.63;39.13;103038.38;5080296;28;20040;-67
2022/01/28 05:48:17;;;;;;;10.05;3.13;;;;;;;17.61;39.17;103045.56;5077156;28;20052;-67
2022/01/28 05:50:43;;;;;;;5.30;2.47;;;;;;;17.59;39.14;103050.91;5081668;28;20545;-67
2022/01/28 05:53:09;;;;;;;7.88;2.75;;;;;;;17.59;39.25;103040.38;5076466;28;20048;-67
2022/01/28 05:55:35;;;;;;;8.57;2.78;;;;;;;17.57;39.06;103044.91;5064294;28;20176;-67
2022/01/28 05:58:00;;;;;;;12.27;2.72;;;;;;;17.53;39.14;103040.81;5078594;28;20040;-67
2022/01/28 06:00:26;;;;;;;10.10;3.05;;;;;;;17.69;39.00;103056.38;5079039;28;20093;-67
2022/01/28 06:02:52;;;;;;;10.13;3.03;;;;;;;17.92;38.69;103063.44;5076477;28;20036;-67
2022/01/28 06:05:18;;;;;;;8.63;2.90;;;;;;;18.37;38.29;103063.63;5081136;28;20032;-67
2022/01/28 06:07:43;;;;;;;10.35;2.53;;;;;;;18.64;37.99;103056.25;5066033;28;20048;-67
2022/01/28 06:10:10;;;;;;;10.73;3.22;;;;;;;18.89;37.55;103059.66;5061158;28;20070;-67
2022/01/28 06:12:44;;;;;;;10.55;2.70;;;;;;;19.10;37.30;103068.53;5080738;28;20363;-67
2022/01/28 06:15:10;;;;;;;10.38;2.83;;;;;;;19.27;37.16;103073.31;5078073;28;20036;-67
2022/01/28 06:17:36;;;;;;;7.18;2.58;;;;;;;19.24;36.95;103070.94;5083221;28;20123;-66
2022/01/28 06:20:04;;;;;;;10.48;2.70;;;;;;;19.30;36.95;103074.88;5077913;28;20059;-67
2022/01/28 06:22:29;;;;;;;7.88;2.45;;;;;;;19.23;37.14;103090.38;5082510;28;20116;-67
2022/01/28 06:24:55;;;;;;;9.18;2.88;;;;;;;19.22;37.31;103101.91;5088137;28;20048;-65
2022/01/28 06:27:22;;;;;;;8.40;2.60;;;;;;;19.21;37.29;103112.56;5081631;28;20056;-65
2022/01/28 06:29:49;;;;;;;8.25;3.35;;;;;;;19.17;37.44;103119.06;5077001;28;20434;-65
2022/01/28 06:32:16;;;;;;;9.50;2.58;;;;;;;19.10;37.51;103123.16;5042883;28;20058;-65
2022/01/28 06:34:42;;;;;;;9.73;2.70;;;;;;;19.06;37.68;103119.91;5079235;28;20040;-67
2022/01/28 06:37:07;;;;;;;10.75;2.95;;;;;;;19.10;37.48;103136.34;5079447;28;20489;-67
2022/01/28 06:39:33;;;;;;;10.98;2.95;;;;;;;19.26;37.48;103135.03;5061670;28;20067;-67
2022/01/28 06:41:59;;;;;;;8.45;2.72;;;;;;;19.45;37.17;103134.44;5079340;28;20044;-67
2022/01/28 06:44:25;;;;;;;8.70;2.58;;;;;;;19.54;36.78;103128.44;5080318;28;20639;-67
2022/01/28 06:46:51;;;;;;;9.45;2.88;;;;;;;19.68;36.84;103142.34;5075904;28;20043;-67
2022/01/28 06:49:17;;;;;;;7.20;2.35;;;;;;;19.70;36.46;103140.44;5083542;28;20036;-67
2022/01/28 06:51:43;;;;;;;7.97;2.75;;;;;;;19.63;36.77;103144.53;5078395;28;20042;-67
2022/01/28 06:54:08;;;;;;;9.25;2.75;;;;;;;19.54;37.05;103143.44;5078552;28;20032;-67
2022/01/28 06:56:34;;;;;;;7.18;2.75;;;;;;;19.51;37.07;103154.25;5078125;28;20047;-67
2022/01/28 06:59:00;;;;;;;8.10;2.63;;;;;;;19.43;37.25;103151.38;5078949;28;20288;-67
2022/01/28 07:01:25;;;;;;;7.13;2.60;;;;;;;19.37;37.39;103138.63;5074845;28;20039;-67
2022/01/28 07:03:51;;;;;;;8.15;2.80;;;;;;;19.39;37.13;103142.84;5066111;28;20052;-67
2022/01/28 07:06:16;;;;;;;5.88;2.55;;;;;;;19.43;37.14;103146.09;5080067;28;20036;-67
2022/01/28 07:08:42;;;;;;;9.48;2.70;;;;;;;19.43;37.22;103143.44;5075575;28;20039;-67
2022/01/28 07:11:07;;;;;;;9.93;2.58;;;;;;;19.38;37.23;103138.50;5081220;28;20040;-65
2022/01/28 07:13:33;;;;;;;9.25;2.90;;;;;;;19.41;37.21;103146.22;5089996;28;20036;-65
2022/01/28 07:15:58;;;;;;;9.98;2.50;;;;;;;19.49;37.08;103150.88;5076135;28;20070;-65
2022/01/28 07:18:24;;;;;;;8.45;2.45;;;;;;;19.52;36.91;103155.91;5076593;28;20036;-65
2022/01/28 07:20:50;;;;;;;9.40;3.20;;;;;;;19.67;36.75;103156.53;5079771;28;20036;-65
2022/01/28 07:23:15;;;;;;;9.98;2.63;;;;;;;19.75;36.58;103157.63;5074611;28;20039;-65
2022/01/28 07:25:41;;;;;;;8.70;2.45;;;;;;;19.72;36.73;103168.41;5080450;28;20452;-65
2022/01/28 07:28:07;;;;;;;10.20;2.67;;;;;;;19.70;36.58;103166.88;5083894;28;20036;-65
2022/01/28 07:30:32;;;;;;;12.60;2.80;;;;;;;19.68;36.79;103176.72;5083717;28;20039;-65
2022/01/28 07:33:00;;;;;;;6.93;2.88;;;;;;;19.65;36.79;103180.44;5086515;28;20127;-65
2022/01/28 07:35:26;;;;;;;6.72;2.60;;;;;;;19.60;36.83;103177.34;5080212;28;20172;-65
2022/01/28 07:37:52;;;;;;;8.85;3.08;;;;;;;19.61;36.80;103185.16;5084982;28;20575;-65
2022/01/28 07:40:17;;;;;;;11.43;2.90;;;;;;;19.56;36.99;103182.00;5081042;28;20048;-65
2022/01/28 07:42:43;;;;;;;11.48;3.28;;;;;;;19.63;36.86;103190.31;5072151;28;20114;-65
2022/01/28 07:45:11;;;;;;;7.95;2.83;;;;;;;19.62;36.82;103188.63;5079967;28;20024;-65
2022/01/28 07:47:36;;;;;;;13.95;3.03;;;;;;;19.61;36.79;103185.16;5083203;28;20477;-65
2022/01/28 07:50:07;;;;;;;7.05;2.70;;;;;;;19.63;36.66;103187.66;5082372;28;20036;-65
2022/01/28 07:52:33;;;;;;;10.77;3.50;;;;;;;19.60;36.72;103201.13;5082120;28;20043;-65
2022/01/28 07:54:58;;;;;;;13.55;3.22;;;;;;;19.58;36.82;103210.97;5078831;28;20055;-65
2022/01/28 07:57:24;;;;;;;9.48;3.33;;;;;;;19.55;36.74;103217.31;5082787;28;20072;-65
2022/01/28 07:59:49;;;;;;;9.85;2.70;;;;;;;19.57;36.59;103215.44;5079388;28;20036;-65
2022/01/28 08:02:15;;;;;;;11.43;2.65;;;;;;;19.49;36.70;103203.72;5080171;28;20036;-65
2022/01/28 08:04:40;;;;;;;11.77;3.08;;;;;;;19.64;36.70;103223.72;5086353;28;20469;-65
2022/01/28 08:07:06;;;;;;;11.52;2.90;;;;;;;19.70;36.55;103225.03;5064201;28;21797;-65
2022/01/28 08:09:32;;;;;;;10.95;3.10;;;;;;;19.68;36.71;103219.84;5087193;28;20048;-65
2022/01/28 08:11:58;;;;;;;6.78;2.72;;;;;;;19.63;36.80;103219.38;5081162;28;20028;-65
2022/01/28 08:14:24;;;;;;;12.57;3.00;;;;;;;19.61;36.82;103232.72;5082888;28;20039;-65
2022/01/28 08:16:50;;;;;;;12.13;3.10;;;;;;;19.60;36.79;103231.03;5078502;28;20044;-65
2022/01/28 08:19:15;;;;;;;11.13;3.30;;;;;;;19.66;36.84;103235.00;5066228;28;20108;-65
2022/01/28 08:21:41;;;;;;;8.40;3.25;;;;;;;19.69;36.74;103247.13;5081790;28;20038;-66
2022/01/28 08:24:06;;;;;;;10.10;2.63;;;;;;;19.67;36.71;103241.13;5065970;28;20044;-65
2022/01/28 08:26:32;;;;;;;8.93;2.40;;;;;;;19.68;36.60;103243.66;5080897;28;20051;-65
2022/01/28 08:28:58;;;;;;;9.23;2.13;;;;;;;19.66;36.73;103242.94;5080055;28;20073;-65
2022/01/28 08:31:23;;;;;;;10.13;2.75;;;;;;;19.62;36.72;103244.13;5082071;28;20032;-65
2022/01/28 08:33:49;;;;;;;10.45;3.05;;;;;;;19.59;36.79;103244.38;5079227;28;20044;-64
2022/01/28 08:36:14;;;;;;;7.57;2.75;;;;;;;19.57;36.74;103244.50;5081640;28;20427;-65
2022/01/28 08:38:44;;;;;;;8.35;3.20;;;;;;;19.55;36.89;103245.56;5063892;28;20043;-65
2022/01/28 08:41:13;;;;;;;10.45;2.63;;;;;;;19.58;36.91;103256.75;5081099;28;20051;-65
2022/01/28 08:43:40;;;;;;;10.13;2.50;;;;;;;19.59;36.91;103253.16;5081215;28;20480;-65
2022/01/28 08:46:06;;;;;;;11.20;3.45;;;;;;;19.66;36.65;103258.78;5077472;28;20488;-65
2022/01/28 08:48:32;;;;;;;11.00;2.92;;;;;;;19.66;36.73;103263.25;5083146;28;20038;-65
2022/01/28 08:50:58;;;;;;;7.00;2.50;;;;;;;19.58;36.77;103253.28;5079403;28;20036;-65
2022/01/28 08:53:24;;;;;;;7.65;2.60;;;;;;;19.64;36.82;103260.72;5079083;28;20484;-65
2022/01/28 08:55:49;;;;;;;12.15;3.63;;;;;;;19.64;36.55;103278.38;5078655;28;20118;-65
2022/01/28 08:58:15;;;;;;;7.32;3.05;;;;;;;19.66;36.70;103284.38;5078054;28;20286;-65
2022/01/28 09:00:45;;;;;;;8.30;2.47;;;;;;;19.67;36.60;103281.63;5083712;28;20035;-65
2022/01/28 09:03:12;;;;;;;7.20;2.58;;;;;;;19.69;36.62;103287.63;5075888;28;20042;-65
2022/01/28 09:05:38;;;;;;;6.90;2.20;;;;;;;19.69;36.62;103282.34;5075182;28;20043;-65
2022/01/28 09:08:07;;;;;;;6.30;2.50;;;;;;;19.67;36.60;103284.25;5075869;28;20040;-66
2022/01/28 09:10:33;;;;;;;9.50;3.10;;;;;;;19.67;36.45;103294.84;5078517;28;20048;-65
2022/01/28 09:15:37;;;;;;;12.02;3.70;;;;;;;19.66;36.72;103287.03;5079844;28;20123;-65
2022/01/28 09:18:03;;;;;;;9.25;2.95;;;;;;;19.70;36.50;103293.75;5076214;28;20067;-66
2022/01/28 09:20:31;;;;;;;8.77;2.60;;;;;;;19.80;36.46;103300.84;5079138;28;20044;-66
2022/01/28 09:23:00;;;;;;;7.13;3.03;;;;;;;19.81;36.50;103301.69;5075317;28;20626;-65
2022/01/28 09:25:26;;;;;;;8.15;2.83;;;;;;;19.87;36.45;103309.97;5080440;28;20498;-65
2022/01/28 09:27:52;;;;;;;8.52;2.40;;;;;;;19.83;36.47;103316.47;5081000;28;20032;-66
2022/01/28 09:30:18;;;;;;;7.95;2.65;;;;;;;19.86;36.59;103324.16;5077631;28;20078;-65
2022/01/28 09:32:44;;;;;;;7.50;3.03;;;;;;;19.86;36.35;103326.81;5079674;28;20040;-65
2022/01/28 09:35:10;;;;;;;15.57;3.38;;;;;;;19.83;36.37;103321.75;5079097;28;20040;-67
2022/01/28 09:37:36;;;;;;;13.68;3.58;;;;;;;19.90;36.98;103322.13;5046086;28;20055;-65
2022/01/28 09:40:04;;;;;;;8.55;3.42;;;;;;;19.88;36.90;103324.88;5077063;28;20077;-66
2022/01/28 09:42:32;;;;;;;11.23;3.13;;;;;;;19.85;36.92;103321.66;5079900;28;20641;-65
2022/01/28 09:45:01;;;;;;;8.63;3.00;;;;;;;19.80;36.75;103310.59;5075492;28;20710;-65
2022/01/28 09:47:27;;;;;;;11.32;3.30;;;;;;;19.87;36.69;103330.28;5083029;28;20039;-65
2022/01/28 09:49:53;;;;;;;10.88;3.00;;;;;;;19.81;36.56;103328.97;5077987;28;20051;-65
2022/01/28 09:52:19;;;;;;;8.80;2.63;;;;;;;19.82;36.69;103350.97;5082234;28;20512;-65
2022/01/28 09:54:46;;;;;;;9.85;3.10;;;;;;;19.84;36.70;103354.34;5078338;28;20139;-65
2022/01/28 09:57:17;;;;;;;10.60;2.70;;;;;;;19.83;36.83;103350.00;5081310;28;20040;-65
2022/01/28 09:59:42;;;;;;;10.65;3.40;;;;;;;19.82;36.76;103335.09;5072643;28;20679;-67
2022/01/28 10:02:08;;;;;;;10.73;3.47;;;;;;;19.82;36.64;103327.19;5082367;28;20036;-65
2022/01/28 10:04:34;;;;;;;11.30;2.53;;;;;;;19.80;36.62;103324.66;5079909;28;20043;-65
2022/01/28 10:07:13;;;;;;;8.10;3.00;;;;;;;19.88;36.46;103343.41;5078921;28;20397;-65
2022/01/28 10:09:55;;;;;;;10.35;2.80;;;;;;;19.74;36.46;103332.19;5075806;28;20646;-65
2022/01/28 10:12:30;;;;;;;10.95;3.10;;;;;;;19.66;36.80;103343.38;5058800;28;20063;-65
2022/01/28 10:15:02;;;;;;;11.73;3.22;;;;;;;19.72;36.67;103348.19;5085937;28;20036;-65
2022/01/28 10:18:00;;;;;;;9.38;2.97;;;;;;;19.73;36.86;103360.44;5087916;28;20397;-65
2022/01/28 10:20:27;;;;;;;9.52;3.47;;;;;;;19.75;36.62;103355.91;5054787;28;20041;-66
2022/01/28 10:22:59;;;;;;;10.60;3.05;;;;;;;19.70;37.00;103367.78;5072527;28;20032;-65
2022/01/28 10:25:34;;;;;;;9.98;3.20;;;;;;;19.72;36.81;103373.78;5071034;28;20122;-66
2022/01/28 10:28:09;;;;;;;10.73;3.47;;;;;;;19.71;36.88;103374.75;5073934;28;20055;-66
2022/01/28 10:30:42;;;;;;;12.15;2.95;;;;;;;19.71;36.77;103386.16;5075406;28;20354;-66
2022/01/28 10:33:15;;;;;;;12.15;3.22;;;;;;;19.75;36.66;103399.97;5073304;28;20063;-66
2022/01/28 10:35:57;;;;;;;7.53;2.47;;;;;;;19.71;36.84;103404.66;5074084;28;20081;-66
2022/01/28 10:38:27;;;;;;;11.15;3.90;;;;;;;19.70;36.85;103399.50;5075044;28;20070;-66
2022/01/28 10:41:10;;;;;;;10.80;3.00;;;;;;;19.67;36.92;103397.94;5072434;28;20590;-66
2022/01/28 10:43:54;;;;;;;7.43;2.70;;;;;;;19.71;36.62;103388.78;5057343;28;20500;-66
2022/01/28 10:46:33;;;;;;;11.80;3.45;;;;;;;19.71;36.88;103375.59;5070060;28;20115;-66
2022/01/28 10:49:05;;;;;;;7.60;3.15;;;;;;;19.70;36.76;103368.63;5075356;28;20032;-65
2022/01/28 10:51:49;;;;;;;9.65;3.60;;;;;;;19.72;36.81;103355.28;5072201;28;20088;-65
2022/01/28 10:54:22;;;;;;;10.23;3.25;;;;;;;19.69;37.05;103355.50;5073770;28;20076;-66
2022/01/28 10:56:59;;;;;;;7.28;2.70;;;;;;;19.65;36.89;103352.28;5071191;28;20910;-65
2022/01/28 10:59:35;;;;;;;10.07;3.53;;;;;;;19.65;37.11;103352.28;5073013;28;20118;-66
2022/01/28 11:02:02;;;;;;;8.05;3.22;;;;;;;19.63;36.83;103340.97;5070035;28;20960;-65
2022/01/28 11:04:28;;;;;;;9.63;2.97;;;;;;;19.71;36.77;103354.44;5074105;28;20070;-65
2022/01/28 11:06:58;;;;;;;8.52;2.65;;;;;;;19.70;36.77;103344.81;5071090;28;20481;-66
2022/01/28 11:09:24;;;;;;;10.23;3.30;;;;;;;19.74;36.73;103335.69;5076009;28;20040;-65
2022/01/28 11:11:53;;;;;;;8.90;3.72;;;;;;;19.71;36.85;103333.28;5074338;28;20080;-66
2022/01/28 11:14:20;;;;;;;8.40;2.58;;;;;;;19.70;36.85;103336.88;5087571;28;20054;-65
2022/01/28 11:16:46;;;;;;;13.95;3.22;;;;;;;20.01;36.64;103321.28;5057434;28;20050;-67
2022/01/28 11:19:15;;;;;;;10.57;3.65;;;;;;;19.85;36.69;103326.94;5045652;28;20547;-68
2022/01/28 11:21:40;;;;;;;15.40;3.95;;;;;;;19.84;36.77;103327.91;5076585;28;20047;-71
2022/01/28 11:24:31;;;;;;;13.05;3.47;;;;;;;19.98;36.54;103334.75;5071047;28;20040;-69
2022/01/28 11:27:25;;;;;;;11.48;3.00;;;;;;;20.03;36.50;103335.22;5075995;28;20046;-65
2022/01/28 11:30:10;;;;;;;11.05;3.38;;;;;;;20.19;35.86;103339.19;5075571;28;20429;-65
2022/01/28 11:33:06;;;;;;;15.68;4.40;;;;;;;20.26;35.80;103338.69;5074056;28;21436;-63
2022/01/28 11:35:34;;;;;;;15.57;3.85;;;;;;;20.30;35.72;103341.00;5044362;28;20122;-65
2022/01/28 11:38:04;;;;;;;11.07;3.38;;;;;;;20.43;35.52;103346.16;5072425;28;20036;-63
2022/01/28 11:40:44;;;;;;;11.57;2.95;;;;;;;20.49;35.19;103348.34;5050567;28;20489;-63
2022/01/28 11:43:20;;;;;;;;;;;;;;;20.58;35.03;103344.94;5073172;28;20127;-64
2022/01/28 11:45:46;;;;;;;15.18;3.95;;;;;;;20.57;35.22;103332.66;5054868;28;20046;-63
2022/01/28 11:48:12;;;;;;;12.88;3.22;;;;;;;20.54;35.31;103335.56;5057661;28;20040;-64
2022/01/28 11:50:37;;;;;;;10.93;3.97;;;;;;;20.61;34.97;103330.59;5051763;28;20150;-63
2022/01/28 11:53:21;;;;;;;11.27;3.63;;;;;;;20.86;35.03;103330.31;5063347;28;20048;-62
2022/01/28 11:56:01;;;;;;;13.32;3.85;;;;;;;20.47;35.89;103331.75;5072287;28;20032;-61
2022/01/28 11:58:52;;;;;;;13.02;3.33;;;;;;;20.36;36.19;103323.78;5053427;28;20038;-62
2022/01/28 12:01:39;;;;;;;18.65;3.28;;;;;;;20.40;36.33;103319.91;5043125;28;20859;-67
2022/01/28 12:04:31;;;;;;;12.50;3.25;;;;;;;20.49;36.78;103319.22;5076286;28;20035;-68
2022/01/28 12:07:06;;;;;;;12.25;3.00;;;;;;;20.56;36.60;103317.75;5059783;28;20046;-65
2022/01/28 12:09:34;;;;;;;11.40;3.08;;;;;;;20.63;36.28;103302.19;5064303;28;20046;-66
2022/01/28 12:12:01;;;;;;;11.68;3.13;;;;;;;20.65;37.13;103301.13;5078758;28;20044;-67
2022/01/28 12:14:49;;;;;;;10.90;3.40;;;;;;;20.92;35.92;103300.66;5057589;28;20464;-60
2022/01/28 12:17:29;;;;;;;10.18;2.65;;;;;;;20.66;36.45;103310.75;5081079;28;20061;-62
2022/01/28 12:20:13;;;;;;;10.90;3.20;;;;;;;20.72;36.39;103314.69;5052513;28;20034;-60
2022/01/28 12:23:10;;;;;;;6.88;3.30;;;;;;;20.50;36.77;103305.03;5081817;28;20542;-60
2022/01/28 12:25:36;;;;;;;15.65;2.85;;;;;;;20.44;36.79;103313.44;5053642;28;20028;-59
2022/01/28 12:28:16;;;;;;;9.63;3.42;;;;;;;20.41;36.84;103301.28;5075561;28;21263;-59
2022/01/28 12:30:44;;;;;;;11.90;3.28;;;;;;;20.32;36.70;103296.72;5049716;28;20509;-59
2022/01/28 12:33:11;;;;;;;10.35;2.95;;;;;;;20.31;37.01;103296.84;5077089;28;20545;-59
2022/01/28 12:35:41;;;;;;;7.28;2.50;;;;;;;20.32;36.74;103294.09;5051458;28;20035;-59
2022/01/28 12:38:07;;;;;;;8.77;3.22;;;;;;;20.25;36.96;103292.88;5070307;28;20507;-59
2022/01/28 12:40:40;;;;;;;9.77;3.13;;;;;;;20.19;36.86;103285.44;5045327;28;20043;-59
2022/01/28 12:43:07;;;;;;;8.45;3.13;;;;;;;20.22;36.83;103283.38;5072572;28;20035;-59
2022/01/28 12:45:33;;;;;;;10.45;3.30;;;;;;;20.16;36.94;103283.88;5051306;28;20082;-59
2022/01/28 12:47:59;;;;;;;9.07;2.78;;;;;;;20.16;36.88;103281.25;5069139;28;20078;-60
2022/01/28 12:50:28;;;;;;;10.68;3.25;;;;;;;20.12;36.91;103279.81;5055329;28;20235;-60
2022/01/28 12:52:53;;;;;;;10.38;2.58;;;;;;;20.13;36.90;103276.19;5079009;28;20065;-60
2022/01/28 12:55:18;;;;;;;8.50;3.08;;;;;;;20.12;36.84;103278.97;5053492;28;20044;-59
2022/01/28 12:57:46;;;;;;;11.95;2.78;;;;;;;20.11;36.76;103275.47;5063683;28;20085;-62
2022/01/28 13:00:13;;;;;;;9.85;2.88;;;;;;;20.39;36.34;103271.44;5066658;28;20181;-74
2022/01/28 13:02:41;;;;;;;13.48;3.67;;;;;;;20.46;36.46;103262.06;5048270;28;20054;-69